sensor_id;sensor_type;location;lat;lon;timestamp;temperature;humidity
15239;DHT22;7722;53.274;9.500;2023-06-05T00:01:06;10.20;99.90
15239;DHT22;7722;53.274;9.500;2023-06-05T00:03:35;10.20;99.90
15239;DHT22;7722;53.274;9.500;2023-06-05T00:06:02;10.20;99.90
15239;DHT22;7722;53.274;9.500;2023-06-05T00:08:31;10.20;99.90
15239;DHT22;7722;53.274;9.500;2023-06-05T00:10:59;10.20;99.90
15239;DHT22;7722;53.274;9.500;2023-06-05T00:13:26;10.20;99.90
15239;DHT22;7722;53.274;9.500;2023-06-05T00:15:53;10.10;99.90
15239;DHT22;7722;53.274;9.500;2023-06-05T00:18:20;10.10;99.90
15239;DHT22;7722;53.274;9.500;2023-06-05T00:20:47;10.10;99.90
15239;DHT22;7722;53.274;9.500;2023-06-05T00:23:14;10.10;99.90
15239;DHT22;7722;53.274;9.500;2023-06-05T00:25:46;10.10;99.90
15239;DHT22;7722;53.274;9.500;2023-06-05T00:28:13;10.00;99.90
15239;DHT22;7722;53.274;9.500;2023-06-05T00:30:40;10.00;99.90
15239;DHT22;7722;53.274;9.500;2023-06-05T00:33:07;10.00;99.90
15239;DHT22;7722;53.274;9.500;2023-06-05T00:35:34;9.90;99.90
15239;DHT22;7722;53.274;9.500;2023-06-05T00:38:01;9.90;99.90
15239;DHT22;7722;53.274;9.500;2023-06-05T00:40:28;9.90;99.90
15239;DHT22;7722;53.274;9.500;2023-06-05T00:42:56;9.90;99.90
15239;DHT22;7722;53.274;9.500;2023-06-05T00:45:23;9.80;99.90
15239;DHT22;7722;53.274;9.500;2023-06-05T00:47:50;9.90;99.90
15239;DHT22;7722;53.274;9.500;2023-06-05T00:50:18;9.90;99.90
15239;DHT22;7722;53.274;9.500;2023-06-05T00:52:48;9.80;99.90
15239;DHT22;7722;53.274;9.500;2023-06-05T00:55:15;9.80;99.90
15239;DHT22;7722;53.274;9.500;2023-06-05T00:57:43;9.80;99.90
15239;DHT22;7722;53.274;9.500;2023-06-05T01:00:13;9.80;99.90
15239;DHT22;7722;53.274;9.500;2023-06-05T01:02:41;9.80;99.90
15239;DHT22;7722;53.274;9.500;2023-06-05T01:05:09;9.80;99.90
15239;DHT22;7722;53.274;9.500;2023-06-05T01:07:36;9.70;99.90
15239;DHT22;7722;53.274;9.500;2023-06-05T01:10:06;9.70;99.90
15239;DHT22;7722;53.274;9.500;2023-06-05T01:12:40;9.60;99.90
15239;DHT22;7722;53.274;9.500;2023-06-05T01:15:09;9.70;99.90
15239;DHT22;7722;53.274;9.500;2023-06-05T01:17:38;9.60;99.90
15239;DHT22;7722;53.274;9.500;2023-06-05T01:20:06;9.60;99.90
15239;DHT22;7722;53.274;9.500;2023-06-05T01:22:35;9.60;99.90
15239;DHT22;7722;53.274;9.500;2023-06-05T01:25:05;9.60;99.90
15239;DHT22;7722;53.274;9.500;2023-06-05T01:27:44;9.60;99.90
15239;DHT22;7722;53.274;9.500;2023-06-05T01:30:18;9.60;99.90
15239;DHT22;7722;53.274;9.500;2023-06-05T01:32:53;9.50;99.90
15239;DHT22;7722;53.274;9.500;2023-06-05T01:35:23;9.50;99.90
15239;DHT22;7722;53.274;9.500;2023-06-05T01:37:54;9.60;99.90
15239;DHT22;7722;53.274;9.500;2023-06-05T01:40:26;9.50;99.90
15239;DHT22;7722;53.274;9.500;2023-06-05T01:42:54;9.50;99.90
15239;DHT22;7722;53.274;9.500;2023-06-05T01:45:22;9.50;99.90
15239;DHT22;7722;53.274;9.500;2023-06-05T01:47:50;9.50;99.90
15239;DHT22;7722;53.274;9.500;2023-06-05T01:50:17;9.60;99.90
15239;DHT22;7722;53.274;9.500;2023-06-05T01:52:46;9.60;99.90
15239;DHT22;7722;53.274;9.500;2023-06-05T01:55:15;9.50;99.90
15239;DHT22;7722;53.274;9.500;2023-06-05T01:57:45;9.40;99.90
15239;DHT22;7722;53.274;9.500;2023-06-05T02:00:13;9.30;99.90
15239;DHT22;7722;53.274;9.500;2023-06-05T02:02:42;9.30;99.90
15239;DHT22;7722;53.274;9.500;2023-06-05T02:05:09;9.20;99.90
15239;DHT22;7722;53.274;9.500;2023-06-05T02:07:38;9.20;99.90
15239;DHT22;7722;53.274;9.500;2023-06-05T02:10:08;9.10;99.90
15239;DHT22;7722;53.274;9.500;2023-06-05T02:12:35;9.10;99.90
15239;DHT22;7722;53.274;9.500;2023-06-05T02:15:05;9.00;99.90
15239;DHT22;7722;53.274;9.500;2023-06-05T02:17:32;9.00;99.90
15239;DHT22;7722;53.274;9.500;2023-06-05T02:20:00;9.00;99.90
15239;DHT22;7722;53.274;9.500;2023-06-05T02:22:27;8.90;99.90
15239;DHT22;7722;53.274;9.500;2023-06-05T02:24:54;8.90;99.90
15239;DHT22;7722;53.274;9.500;2023-06-05T02:27:21;8.90;99.90
15239;DHT22;7722;53.274;9.500;2023-06-05T02:29:51;8.90;99.90
15239;DHT22;7722;53.274;9.500;2023-06-05T02:32:20;8.90;99.90
15239;DHT22;7722;53.274;9.500;2023-06-05T02:34:51;8.90;99.90
15239;DHT22;7722;53.274;9.500;2023-06-05T02:37:18;8.80;99.90
15239;DHT22;7722;53.274;9.500;2023-06-05T02:39:48;8.80;99.90
15239;DHT22;7722;53.274;9.500;2023-06-05T02:42:15;8.80;99.90
15239;DHT22;7722;53.274;9.500;2023-06-05T02:44:44;8.80;99.90
15239;DHT22;7722;53.274;9.500;2023-06-05T02:47:11;8.80;99.90
15239;DHT22;7722;53.274;9.500;2023-06-05T02:49:39;8.70;99.90
15239;DHT22;7722;53.274;9.500;2023-06-05T02:52:06;8.70;99.90
15239;DHT22;7722;53.274;9.500;2023-06-05T02:54:33;8.80;99.90
15239;DHT22;7722;53.274;9.500;2023-06-05T02:57:00;8.80;99.90
15239;DHT22;7722;53.274;9.500;2023-06-05T02:59:27;8.80;99.90
15239;DHT22;7722;53.274;9.500;2023-06-05T03:01:57;8.80;99.90
15239;DHT22;7722;53.274;9.500;2023-06-05T03:04:24;8.80;99.90
15239;DHT22;7722;53.274;9.500;2023-06-05T03:06:52;8.80;99.90
15239;DHT22;7722;53.274;9.500;2023-06-05T03:09:22;8.80;99.90
15239;DHT22;7722;53.274;9.500;2023-06-05T03:11:50;8.80;99.90
15239;DHT22;7722;53.274;9.500;2023-06-05T03:14:18;8.80;99.90
15239;DHT22;7722;53.274;9.500;2023-06-05T03:16:45;8.90;99.90
15239;DHT22;7722;53.274;9.500;2023-06-05T03:19:12;8.90;99.90
15239;DHT22;7722;53.274;9.500;2023-06-05T03:21:39;8.90;99.90
15239;DHT22;7722;53.274;9.500;2023-06-05T03:24:11;8.90;99.90
15239;DHT22;7722;53.274;9.500;2023-06-05T03:26:39;8.90;99.90
15239;DHT22;7722;53.274;9.500;2023-06-05T03:29:07;9.00;99.90
15239;DHT22;7722;53.274;9.500;2023-06-05T03:31:35;9.00;99.90
15239;DHT22;7722;53.274;9.500;2023-06-05T03:34:02;9.00;99.90
15239;DHT22;7722;53.274;9.500;2023-06-05T03:36:29;9.00;99.90
15239;DHT22;7722;53.274;9.500;2023-06-05T03:38:59;9.10;99.90
15239;DHT22;7722;53.274;9.500;2023-06-05T03:41:27;9.10;99.90
15239;DHT22;7722;53.274;9.500;2023-06-05T03:43:54;9.10;99.90
15239;DHT22;7722;53.274;9.500;2023-06-05T03:46:22;9.10;99.90
15239;DHT22;7722;53.274;9.500;2023-06-05T03:48:50;9.10;99.90
15239;DHT22;7722;53.274;9.500;2023-06-05T03:51:19;9.10;99.90
15239;DHT22;7722;53.274;9.500;2023-06-05T03:53:46;9.20;99.90
15239;DHT22;7722;53.274;9.500;2023-06-05T03:56:20;9.20;99.90
15239;DHT22;7722;53.274;9.500;2023-06-05T03:58:48;9.20;99.90
15239;DHT22;7722;53.274;9.500;2023-06-05T04:01:16;9.20;99.90
15239;DHT22;7722;53.274;9.500;2023-06-05T04:03:43;9.30;99.90
15239;DHT22;7722;53.274;9.500;2023-06-05T04:06:10;9.30;99.90
15239;DHT22;7722;53.274;9.500;2023-06-05T04:08:37;9.40;99.90
15239;DHT22;7722;53.274;9.500;2023-06-05T04:11:04;9.40;99.90
15239;DHT22;7722;53.274;9.500;2023-06-05T04:13:31;9.40;99.90
15239;DHT22;7722;53.274;9.500;2023-06-05T04:16:00;9.50;99.90
15239;DHT22;7722;53.274;9.500;2023-06-05T04:18:28;9.50;99.90
15239;DHT22;7722;53.274;9.500;2023-06-05T04:20:55;9.50;99.90
15239;DHT22;7722;53.274;9.500;2023-06-05T04:23:22;9.60;99.90
15239;DHT22;7722;53.274;9.500;2023-06-05T04:25:49;9.70;99.90
15239;DHT22;7722;53.274;9.500;2023-06-05T04:28:19;9.70;99.90
15239;DHT22;7722;53.274;9.500;2023-06-05T04:30:47;9.80;99.90
15239;DHT22;7722;53.274;9.500;2023-06-05T04:33:16;9.90;99.90
15239;DHT22;7722;53.274;9.500;2023-06-05T04:35:43;9.90;99.90
15239;DHT22;7722;53.274;9.500;2023-06-05T04:38:10;9.90;99.90
15239;DHT22;7722;53.274;9.500;2023-06-05T04:40:37;10.00;99.90
15239;DHT22;7722;53.274;9.500;2023-06-05T04:43:04;10.10;99.90
15239;DHT22;7722;53.274;9.500;2023-06-05T04:45:31;10.20;99.90
15239;DHT22;7722;53.274;9.500;2023-06-05T04:47:58;10.30;99.90
15239;DHT22;7722;53.274;9.500;2023-06-05T04:50:27;10.40;99.90
15239;DHT22;7722;53.274;9.500;2023-06-05T04:52:55;10.60;99.90
15239;DHT22;7722;53.274;9.500;2023-06-05T04:55:22;10.60;99.90
15239;DHT22;7722;53.274;9.500;2023-06-05T04:57:49;10.70;99.90
15239;DHT22;7722;53.274;9.500;2023-06-05T05:00:17;10.70;99.90
15239;DHT22;7722;53.274;9.500;2023-06-05T05:02:45;10.80;99.90
15239;DHT22;7722;53.274;9.500;2023-06-05T05:05:12;10.90;99.90
15239;DHT22;7722;53.274;9.500;2023-06-05T05:07:42;10.90;99.90
15239;DHT22;7722;53.274;9.500;2023-06-05T05:10:10;11.00;99.90
15239;DHT22;7722;53.274;9.500;2023-06-05T05:12:37;11.10;99.90
15239;DHT22;7722;53.274;9.500;2023-06-05T05:15:05;11.20;99.90
15239;DHT22;7722;53.274;9.500;2023-06-05T05:17:33;11.20;99.90
15239;DHT22;7722;53.274;9.500;2023-06-05T05:20:00;11.30;99.90
15239;DHT22;7722;53.274;9.500;2023-06-05T05:22:28;11.40;99.90
15239;DHT22;7722;53.274;9.500;2023-06-05T05:24:57;11.50;99.90
15239;DHT22;7722;53.274;9.500;2023-06-05T05:27:24;11.60;99.90
15239;DHT22;7722;53.274;9.500;2023-06-05T05:29:51;11.80;99.90
15239;DHT22;7722;53.274;9.500;2023-06-05T05:32:18;11.90;99.90
15239;DHT22;7722;53.274;9.500;2023-06-05T05:34:45;12.00;99.90
15239;DHT22;7722;53.274;9.500;2023-06-05T05:37:13;12.00;99.90
15239;DHT22;7722;53.274;9.500;2023-06-05T05:39:40;12.10;99.90
15239;DHT22;7722;53.274;9.500;2023-06-05T05:42:08;12.20;99.90
15239;DHT22;7722;53.274;9.500;2023-06-05T05:44:35;12.30;99.90
15239;DHT22;7722;53.274;9.500;2023-06-05T05:47:03;12.40;99.90
15239;DHT22;7722;53.274;9.500;2023-06-05T05:49:30;12.60;99.90
15239;DHT22;7722;53.274;9.500;2023-06-05T05:51:57;12.70;99.90
15239;DHT22;7722;53.274;9.500;2023-06-05T05:54:23;12.70;99.90
15239;DHT22;7722;53.274;9.500;2023-06-05T05:56:52;12.80;99.90
15239;DHT22;7722;53.274;9.500;2023-06-05T05:59:21;12.90;99.90
15239;DHT22;7722;53.274;9.500;2023-06-05T06:01:49;13.00;99.90
15239;DHT22;7722;53.274;9.500;2023-06-05T06:04:17;13.10;99.90
15239;DHT22;7722;53.274;9.500;2023-06-05T06:06:44;13.30;99.90
15239;DHT22;7722;53.274;9.500;2023-06-05T06:09:14;13.40;99.90
15239;DHT22;7722;53.274;9.500;2023-06-05T06:11:44;13.50;99.90
15239;DHT22;7722;53.274;9.500;2023-06-05T06:14:11;13.50;99.90
15239;DHT22;7722;53.274;9.500;2023-06-05T06:16:40;13.60;99.90
15239;DHT22;7722;53.274;9.500;2023-06-05T06:19:09;13.80;99.90
15239;DHT22;7722;53.274;9.500;2023-06-05T06:21:40;13.90;99.90
15239;DHT22;7722;53.274;9.500;2023-06-05T06:24:07;14.00;99.90
15239;DHT22;7722;53.274;9.500;2023-06-05T06:26:35;13.90;99.90
15239;DHT22;7722;53.274;9.500;2023-06-05T06:29:03;13.90;99.90
15239;DHT22;7722;53.274;9.500;2023-06-05T06:31:31;14.10;99.90
15239;DHT22;7722;53.274;9.500;2023-06-05T06:33:59;14.30;99.90
15239;DHT22;7722;53.274;9.500;2023-06-05T06:36:26;14.40;99.90
15239;DHT22;7722;53.274;9.500;2023-06-05T06:38:53;14.50;99.90
15239;DHT22;7722;53.274;9.500;2023-06-05T06:41:20;14.50;99.90
15239;DHT22;7722;53.274;9.500;2023-06-05T06:43:47;14.70;99.90
15239;DHT22;7722;53.274;9.500;2023-06-05T06:46:15;14.70;99.90
15239;DHT22;7722;53.274;9.500;2023-06-05T06:48:42;15.00;99.90
15239;DHT22;7722;53.274;9.500;2023-06-05T06:51:10;15.00;99.90
15239;DHT22;7722;53.274;9.500;2023-06-05T06:53:37;15.20;99.90
15239;DHT22;7722;53.274;9.500;2023-06-05T06:56:06;15.30;99.90
15239;DHT22;7722;53.274;9.500;2023-06-05T06:58:33;15.30;99.90
15239;DHT22;7722;53.274;9.500;2023-06-05T07:01:00;15.30;99.90
15239;DHT22;7722;53.274;9.500;2023-06-05T07:03:27;15.50;99.90
15239;DHT22;7722;53.274;9.500;2023-06-05T07:05:54;15.60;99.90
15239;DHT22;7722;53.274;9.500;2023-06-05T07:08:23;15.80;99.90
15239;DHT22;7722;53.274;9.500;2023-06-05T07:10:52;16.00;99.90
15239;DHT22;7722;53.274;9.500;2023-06-05T07:13:20;16.00;99.90
15239;DHT22;7722;53.274;9.500;2023-06-05T07:15:48;16.40;99.90
15239;DHT22;7722;53.274;9.500;2023-06-05T07:18:16;16.40;99.90
15239;DHT22;7722;53.274;9.500;2023-06-05T07:20:44;16.40;99.90
15239;DHT22;7722;53.274;9.500;2023-06-05T07:23:11;16.40;99.90
15239;DHT22;7722;53.274;9.500;2023-06-05T07:25:39;16.60;99.90
15239;DHT22;7722;53.274;9.500;2023-06-05T07:28:09;16.90;99.90
15239;DHT22;7722;53.274;9.500;2023-06-05T07:30:37;17.10;99.90
15239;DHT22;7722;53.274;9.500;2023-06-05T07:33:04;17.30;99.90
15239;DHT22;7722;53.274;9.500;2023-06-05T07:35:35;17.50;99.90
15239;DHT22;7722;53.274;9.500;2023-06-05T07:38:02;17.70;99.90
15239;DHT22;7722;53.274;9.500;2023-06-05T07:40:29;17.60;99.90
15239;DHT22;7722;53.274;9.500;2023-06-05T07:42:57;17.60;99.90
15239;DHT22;7722;53.274;9.500;2023-06-05T07:45:25;17.60;99.90
15239;DHT22;7722;53.274;9.500;2023-06-05T07:47:51;17.60;99.90
15239;DHT22;7722;53.274;9.500;2023-06-05T07:50:19;18.00;99.90
15239;DHT22;7722;53.274;9.500;2023-06-05T07:52:46;18.20;99.90
15239;DHT22;7722;53.274;9.500;2023-06-05T07:55:14;18.50;99.90
15239;DHT22;7722;53.274;9.500;2023-06-05T07:57:41;18.20;99.90
15239;DHT22;7722;53.274;9.500;2023-06-05T08:00:10;18.20;99.90
15239;DHT22;7722;53.274;9.500;2023-06-05T08:02:38;18.30;99.90
15239;DHT22;7722;53.274;9.500;2023-06-05T08:05:07;18.60;99.90
15239;DHT22;7722;53.274;9.500;2023-06-05T08:07:34;18.90;99.90
15239;DHT22;7722;53.274;9.500;2023-06-05T08:10:01;19.20;99.90
15239;DHT22;7722;53.274;9.500;2023-06-05T08:12:28;19.20;99.90
15239;DHT22;7722;53.274;9.500;2023-06-05T08:14:55;19.30;99.90
15239;DHT22;7722;53.274;9.500;2023-06-05T08:17:23;19.60;99.90
15239;DHT22;7722;53.274;9.500;2023-06-05T08:19:51;19.80;99.90
15239;DHT22;7722;53.274;9.500;2023-06-05T08:22:18;19.60;99.90
15239;DHT22;7722;53.274;9.500;2023-06-05T08:24:45;19.80;99.90
15239;DHT22;7722;53.274;9.500;2023-06-05T08:27:14;20.20;99.90
15239;DHT22;7722;53.274;9.500;2023-06-05T08:29:41;20.40;99.90
15239;DHT22;7722;53.274;9.500;2023-06-05T08:32:08;20.20;99.30
15239;DHT22;7722;53.274;9.500;2023-06-05T08:34:36;20.50;99.10
15239;DHT22;7722;53.274;9.500;2023-06-05T08:37:03;20.70;99.10
15239;DHT22;7722;53.274;9.500;2023-06-05T08:39:30;20.70;98.40
15239;DHT22;7722;53.274;9.500;2023-06-05T08:41:59;20.60;98.40
15239;DHT22;7722;53.274;9.500;2023-06-05T08:44:29;20.80;98.10
15239;DHT22;7722;53.274;9.500;2023-06-05T08:47:00;21.20;97.90
15239;DHT22;7722;53.274;9.500;2023-06-05T08:49:28;21.30;96.70
15239;DHT22;7722;53.274;9.500;2023-06-05T08:52:01;21.20;97.50
15239;DHT22;7722;53.274;9.500;2023-06-05T08:54:32;21.60;96.60
15239;DHT22;7722;53.274;9.500;2023-06-05T08:57:00;21.10;96.50
15239;DHT22;7722;53.274;9.500;2023-06-05T08:59:29;20.90;96.10
15239;DHT22;7722;53.274;9.500;2023-06-05T09:01:56;20.70;95.80
15239;DHT22;7722;53.274;9.500;2023-06-05T09:04:24;21.30;97.30
15239;DHT22;7722;53.274;9.500;2023-06-05T09:06:55;21.60;96.40
15239;DHT22;7722;53.274;9.500;2023-06-05T09:09:24;21.30;95.30
15239;DHT22;7722;53.274;9.500;2023-06-05T09:12:01;21.40;95.30
15239;DHT22;7722;53.274;9.500;2023-06-05T09:14:28;21.50;94.90
15239;DHT22;7722;53.274;9.500;2023-06-05T09:17:00;21.60;94.90
15239;DHT22;7722;53.274;9.500;2023-06-05T09:19:36;22.20;95.50
15239;DHT22;7722;53.274;9.500;2023-06-05T09:22:03;22.40;94.90
15239;DHT22;7722;53.274;9.500;2023-06-05T09:24:32;22.70;95.60
15239;DHT22;7722;53.274;9.500;2023-06-05T09:27:01;22.60;94.90
15239;DHT22;7722;53.274;9.500;2023-06-05T09:29:30;22.90;94.40
15239;DHT22;7722;53.274;9.500;2023-06-05T09:31:58;22.80;93.80
15239;DHT22;7722;53.274;9.500;2023-06-05T09:34:30;22.50;94.00
15239;DHT22;7722;53.274;9.500;2023-06-05T09:36:59;22.70;96.50
15239;DHT22;7722;53.274;9.500;2023-06-05T09:39:28;22.90;95.30
15239;DHT22;7722;53.274;9.500;2023-06-05T09:41:57;23.20;93.50
15239;DHT22;7722;53.274;9.500;2023-06-05T09:44:26;23.30;93.40
15239;DHT22;7722;53.274;9.500;2023-06-05T09:46:55;23.10;91.90
15239;DHT22;7722;53.274;9.500;2023-06-05T09:49:25;23.10;93.20
15239;DHT22;7722;53.274;9.500;2023-06-05T09:51:53;23.20;92.90
15239;DHT22;7722;53.274;9.500;2023-06-05T09:54:21;23.40;93.00
15239;DHT22;7722;53.274;9.500;2023-06-05T09:56:49;23.60;91.60
15239;DHT22;7722;53.274;9.500;2023-06-05T09:59:21;23.90;92.10
15239;DHT22;7722;53.274;9.500;2023-06-05T10:01:50;24.40;91.40
15239;DHT22;7722;53.274;9.500;2023-06-05T10:04:22;24.50;91.10
15239;DHT22;7722;53.274;9.500;2023-06-05T10:06:51;24.30;90.50
15239;DHT22;7722;53.274;9.500;2023-06-05T10:09:19;24.10;90.00
15239;DHT22;7722;53.274;9.500;2023-06-05T10:11:49;24.30;91.30
15239;DHT22;7722;53.274;9.500;2023-06-05T10:14:20;24.30;90.50
15239;DHT22;7722;53.274;9.500;2023-06-05T10:16:49;24.60;90.70
15239;DHT22;7722;53.274;9.500;2023-06-05T10:19:20;24.60;90.40
15239;DHT22;7722;53.274;9.500;2023-06-05T10:21:48;24.80;90.50
15239;DHT22;7722;53.274;9.500;2023-06-05T10:24:18;25.00;88.80
15239;DHT22;7722;53.274;9.500;2023-06-05T10:27:10;24.90;85.50
15239;DHT22;7722;53.274;9.500;2023-06-05T10:30:06;25.30;88.40
15239;DHT22;7722;53.274;9.500;2023-06-05T10:32:41;25.40;84.20
15239;DHT22;7722;53.274;9.500;2023-06-05T10:35:24;25.70;85.00
15239;DHT22;7722;53.274;9.500;2023-06-05T10:38:06;25.30;84.70
15239;DHT22;7722;53.274;9.500;2023-06-05T10:40:36;25.10;83.80
15239;DHT22;7722;53.274;9.500;2023-06-05T10:43:29;25.60;82.40
15239;DHT22;7722;53.274;9.500;2023-06-05T10:45:59;26.00;82.40
15239;DHT22;7722;53.274;9.500;2023-06-05T10:51:32;26.10;82.30
15239;DHT22;7722;53.274;9.500;2023-06-05T10:54:03;25.80;83.00
15239;DHT22;7722;53.274;9.500;2023-06-05T10:56:57;26.30;79.20
15239;DHT22;7722;53.274;9.500;2023-06-05T10:59:26;25.70;80.90
15239;DHT22;7722;53.274;9.500;2023-06-05T11:02:27;25.80;78.30
15239;DHT22;7722;53.274;9.500;2023-06-05T11:05:10;26.40;79.40
15239;DHT22;7722;53.274;9.500;2023-06-05T11:07:37;26.90;76.90
15239;DHT22;7722;53.274;9.500;2023-06-05T11:10:10;27.40;78.90
15239;DHT22;7722;53.274;9.500;2023-06-05T11:12:57;27.50;77.00
15239;DHT22;7722;53.274;9.500;2023-06-05T11:15:40;27.60;76.60
15239;DHT22;7722;53.274;9.500;2023-06-05T11:18:32;27.60;74.90
15239;DHT22;7722;53.274;9.500;2023-06-05T11:21:00;26.90;75.70
15239;DHT22;7722;53.274;9.500;2023-06-05T11:23:28;27.10;71.80
15239;DHT22;7722;53.274;9.500;2023-06-05T11:28:41;26.30;75.70
15239;DHT22;7722;53.274;9.500;2023-06-05T11:31:08;26.80;73.90
15239;DHT22;7722;53.274;9.500;2023-06-05T11:33:37;27.40;73.90
15239;DHT22;7722;53.274;9.500;2023-06-05T11:36:05;27.60;74.10
15239;DHT22;7722;53.274;9.500;2023-06-05T11:38:34;28.10;71.20
15239;DHT22;7722;53.274;9.500;2023-06-05T11:41:06;28.30;71.60
15239;DHT22;7722;53.274;9.500;2023-06-05T11:43:45;27.90;69.00
15239;DHT22;7722;53.274;9.500;2023-06-05T11:46:12;27.90;69.90
15239;DHT22;7722;53.274;9.500;2023-06-05T11:48:49;27.70;69.80
15239;DHT22;7722;53.274;9.500;2023-06-05T11:51:16;28.20;72.10
15239;DHT22;7722;53.274;9.500;2023-06-05T11:53:45;28.50;70.20
15239;DHT22;7722;53.274;9.500;2023-06-05T11:56:14;28.20;68.50
15239;DHT22;7722;53.274;9.500;2023-06-05T11:58:42;28.10;65.90
15239;DHT22;7722;53.274;9.500;2023-06-05T12:01:14;28.50;68.60
15239;DHT22;7722;53.274;9.500;2023-06-05T12:03:49;27.60;66.70
15239;DHT22;7722;53.274;9.500;2023-06-05T12:06:27;27.80;66.80
15239;DHT22;7722;53.274;9.500;2023-06-05T12:09:06;27.60;67.80
15239;DHT22;7722;53.274;9.500;2023-06-05T12:11:33;27.90;66.70
15239;DHT22;7722;53.274;9.500;2023-06-05T12:14:00;27.60;64.00
15239;DHT22;7722;53.274;9.500;2023-06-05T12:16:31;27.80;65.20
15239;DHT22;7722;53.274;9.500;2023-06-05T12:19:01;27.30;63.90
15239;DHT22;7722;53.274;9.500;2023-06-05T12:21:29;27.80;65.70
15239;DHT22;7722;53.274;9.500;2023-06-05T12:24:05;28.40;63.70
15239;DHT22;7722;53.274;9.500;2023-06-05T12:26:48;28.40;64.70
15239;DHT22;7722;53.274;9.500;2023-06-05T12:29:17;27.90;63.70
15239;DHT22;7722;53.274;9.500;2023-06-05T12:31:44;27.70;63.20
15239;DHT22;7722;53.274;9.500;2023-06-05T12:34:12;28.00;63.80
15239;DHT22;7722;53.274;9.500;2023-06-05T12:36:41;28.60;62.80
15239;DHT22;7722;53.274;9.500;2023-06-05T12:39:10;28.70;65.60
15239;DHT22;7722;53.274;9.500;2023-06-05T12:41:38;29.00;63.80
15239;DHT22;7722;53.274;9.500;2023-06-05T12:44:06;29.70;61.10
15239;DHT22;7722;53.274;9.500;2023-06-05T12:46:34;30.60;61.70
15239;DHT22;7722;53.274;9.500;2023-06-05T12:49:02;30.60;59.50
15239;DHT22;7722;53.274;9.500;2023-06-05T12:51:33;30.10;58.50
15239;DHT22;7722;53.274;9.500;2023-06-05T12:54:01;29.90;59.40
15239;DHT22;7722;53.274;9.500;2023-06-05T12:56:28;29.70;61.00
15239;DHT22;7722;53.274;9.500;2023-06-05T12:58:56;29.50;59.70
15239;DHT22;7722;53.274;9.500;2023-06-05T13:01:24;29.90;58.50
15239;DHT22;7722;53.274;9.500;2023-06-05T13:03:52;30.10;58.90
15239;DHT22;7722;53.274;9.500;2023-06-05T13:06:19;29.80;58.90
15239;DHT22;7722;53.274;9.500;2023-06-05T13:08:48;30.00;59.10
15239;DHT22;7722;53.274;9.500;2023-06-05T13:11:17;30.70;60.90
15239;DHT22;7722;53.274;9.500;2023-06-05T13:13:44;30.90;57.50
15239;DHT22;7722;53.274;9.500;2023-06-05T13:16:11;31.10;55.90
15239;DHT22;7722;53.274;9.500;2023-06-05T13:18:38;30.40;55.50
15239;DHT22;7722;53.274;9.500;2023-06-05T13:21:05;30.30;55.50
15239;DHT22;7722;53.274;9.500;2023-06-05T13:23:33;30.00;56.00
15239;DHT22;7722;53.274;9.500;2023-06-05T13:26:01;29.60;55.80
15239;DHT22;7722;53.274;9.500;2023-06-05T13:28:28;28.20;59.10
15239;DHT22;7722;53.274;9.500;2023-06-05T13:30:55;27.40;60.30
15239;DHT22;7722;53.274;9.500;2023-06-05T13:33:23;27.20;61.30
15239;DHT22;7722;53.274;9.500;2023-06-05T13:35:51;27.50;63.60
15239;DHT22;7722;53.274;9.500;2023-06-05T13:38:19;27.80;63.90
15239;DHT22;7722;53.274;9.500;2023-06-05T13:40:46;28.10;59.20
15239;DHT22;7722;53.274;9.500;2023-06-05T13:43:16;28.80;59.20
15239;DHT22;7722;53.274;9.500;2023-06-05T13:45:43;29.30;59.00
15239;DHT22;7722;53.274;9.500;2023-06-05T13:48:10;29.20;60.00
15239;DHT22;7722;53.274;9.500;2023-06-05T13:50:37;28.80;59.10
15239;DHT22;7722;53.274;9.500;2023-06-05T13:53:04;29.30;61.20
15239;DHT22;7722;53.274;9.500;2023-06-05T13:55:31;30.10;56.60
15239;DHT22;7722;53.274;9.500;2023-06-05T13:57:59;29.60;55.90
15239;DHT22;7722;53.274;9.500;2023-06-05T14:00:29;30.40;55.20
15239;DHT22;7722;53.274;9.500;2023-06-05T14:02:57;31.00;55.50
15239;DHT22;7722;53.274;9.500;2023-06-05T14:05:24;31.70;55.20
15239;DHT22;7722;53.274;9.500;2023-06-05T14:07:52;30.80;56.00
15239;DHT22;7722;53.274;9.500;2023-06-05T14:10:21;31.10;56.30
15239;DHT22;7722;53.274;9.500;2023-06-05T14:12:49;31.90;56.50
15239;DHT22;7722;53.274;9.500;2023-06-05T14:15:17;32.00;55.50
15239;DHT22;7722;53.274;9.500;2023-06-05T14:17:46;32.70;53.40
15239;DHT22;7722;53.274;9.500;2023-06-05T14:20:13;31.30;53.70
15239;DHT22;7722;53.274;9.500;2023-06-05T14:22:40;31.50;53.20
15239;DHT22;7722;53.274;9.500;2023-06-05T14:25:08;30.90;52.80
15239;DHT22;7722;53.274;9.500;2023-06-05T14:27:36;30.80;54.80
15239;DHT22;7722;53.274;9.500;2023-06-05T14:30:03;31.90;54.40
15239;DHT22;7722;53.274;9.500;2023-06-05T14:32:31;32.60;52.80
15239;DHT22;7722;53.274;9.500;2023-06-05T14:35:00;32.50;53.60
15239;DHT22;7722;53.274;9.500;2023-06-05T14:37:27;33.10;52.40
15239;DHT22;7722;53.274;9.500;2023-06-05T14:39:54;33.90;50.10
15239;DHT22;7722;53.274;9.500;2023-06-05T14:42:22;32.80;50.80
15239;DHT22;7722;53.274;9.500;2023-06-05T14:44:49;32.50;52.00
15239;DHT22;7722;53.274;9.500;2023-06-05T14:47:16;33.10;53.90
15239;DHT22;7722;53.274;9.500;2023-06-05T14:49:43;33.10;50.00
15239;DHT22;7722;53.274;9.500;2023-06-05T14:52:11;31.70;51.00
15239;DHT22;7722;53.274;9.500;2023-06-05T14:54:38;31.50;51.20
15239;DHT22;7722;53.274;9.500;2023-06-05T14:57:06;31.00;52.30
15239;DHT22;7722;53.274;9.500;2023-06-05T14:59:33;30.40;53.00
15239;DHT22;7722;53.274;9.500;2023-06-05T15:02:00;29.90;54.70
15239;DHT22;7722;53.274;9.500;2023-06-05T15:04:31;29.50;55.10
15239;DHT22;7722;53.274;9.500;2023-06-05T15:06:59;29.00;57.20
15239;DHT22;7722;53.274;9.500;2023-06-05T15:09:27;28.00;57.30
15239;DHT22;7722;53.274;9.500;2023-06-05T15:11:55;27.50;58.90
15239;DHT22;7722;53.274;9.500;2023-06-05T15:14:22;27.40;60.30
15239;DHT22;7722;53.274;9.500;2023-06-05T15:16:49;27.20;59.70
15239;DHT22;7722;53.274;9.500;2023-06-05T15:19:17;26.70;61.10
15239;DHT22;7722;53.274;9.500;2023-06-05T15:21:45;26.60;60.20
15239;DHT22;7722;53.274;9.500;2023-06-05T15:24:12;26.10;60.10
15239;DHT22;7722;53.274;9.500;2023-06-05T15:26:40;26.30;61.70
15239;DHT22;7722;53.274;9.500;2023-06-05T15:29:08;26.00;61.40
15239;DHT22;7722;53.274;9.500;2023-06-05T15:31:35;25.30;61.00
15239;DHT22;7722;53.274;9.500;2023-06-05T15:34:02;25.10;62.70
15239;DHT22;7722;53.274;9.500;2023-06-05T15:36:29;25.80;63.50
15239;DHT22;7722;53.274;9.500;2023-06-05T15:38:56;27.10;61.50
15239;DHT22;7722;53.274;9.500;2023-06-05T15:41:23;28.00;59.90
15239;DHT22;7722;53.274;9.500;2023-06-05T15:43:52;29.00;60.30
15239;DHT22;7722;53.274;9.500;2023-06-05T15:46:19;29.20;61.10
15239;DHT22;7722;53.274;9.500;2023-06-05T15:48:47;28.90;60.60
15239;DHT22;7722;53.274;9.500;2023-06-05T15:51:14;28.30;64.90
15239;DHT22;7722;53.274;9.500;2023-06-05T15:53:41;28.60;63.60
15239;DHT22;7722;53.274;9.500;2023-06-05T15:56:08;27.80;60.40
15239;DHT22;7722;53.274;9.500;2023-06-05T15:58:35;27.20;62.60
15239;DHT22;7722;53.274;9.500;2023-06-05T16:01:03;27.30;61.30
15239;DHT22;7722;53.274;9.500;2023-06-05T16:03:30;27.80;64.00
15239;DHT22;7722;53.274;9.500;2023-06-05T16:05:58;28.40;64.10